Charles City, Iowa
Current Conditions -  °F | °C
As of 6:15 PM on Sunday 25 Jan 2015 (Local Time) from KCCY Reporting Station
Overcast Overcast  
Wind Chill: 19°   Ceiling: 1300
Heat Index: 28°   Visibility: 10mi
Dew Point: 27°   Wind: 10mph
Humidity: 93%   Direction: 340°NNW
Pressure: 30.04"   Gusts: NA
Location:  43.07°N, 92.67°W
Report Text: KCCY 260015Z AUTO 34009KT 10SM OVC013 M02/M03 A3004 RMK AO2
Loading
Personal Weather Stations






























Interactive Weather Map New forecast layout! Learn more

10-Day Weather Forecast

Advertisements
Track Severe Weather on mobile